Time;durP1;ratioP1;P1;durP2;ratioP2;P2;SDS_P1;SDS_P2;PMS_P1;PMS_P2;Temp;Humidity;BMP_temperature;BMP_pressure;BME280_temperature;BME280_humidity;BME280_pressure;Samples;Min_cycle;Max_cycle;Signal;HPM_P1;HPM_P2
2022/03/01 00:01:28;;;;;;;13.57;4.72;;;;;;;6.41;31.22;100836.38;5015275;28;20022;-74
2022/03/01 00:03:55;;;;;;;7.28;4.22;;;;;;;6.42;31.34;100831.66;5015716;28;20084;-74
2022/03/01 00:06:26;;;;;;;7.30;4.60;;;;;;;6.41;31.80;100835.56;5015666;28;20435;-74
2022/03/01 00:08:54;;;;;;;8.60;4.57;;;;;;;6.50;31.86;100839.19;5015552;28;20038;-74
2022/03/01 00:11:25;;;;;;;10.98;4.28;;;;;;;6.46;30.78;100838.19;5016523;28;20067;-73
2022/03/01 00:13:55;;;;;;;6.30;4.30;;;;;;;6.44;31.21;100832.16;5032183;28;20034;-74
2022/03/01 00:16:24;;;;;;;6.85;4.63;;;;;;;6.43;30.50;100839.63;5015072;28;20030;-72
2022/03/01 00:18:52;;;;;;;7.95;4.65;;;;;;;6.43;31.33;100836.06;5015569;28;20468;-72
2022/03/01 00:21:21;;;;;;;8.18;4.40;;;;;;;6.38;31.90;100828.72;5013756;28;20037;-72
2022/03/01 00:23:47;;;;;;;7.32;4.03;;;;;;;6.43;32.15;100830.53;5017109;28;20025;-72
2022/03/01 00:26:15;;;;;;;9.43;5.43;;;;;;;6.38;31.94;100833.44;5015224;28;20350;-72
2022/03/01 00:28:40;;;;;;;7.45;4.15;;;;;;;6.30;32.44;100833.09;5014794;28;20031;-72
2022/03/01 00:31:06;;;;;;;8.23;4.07;;;;;;;6.35;31.60;100834.09;5015073;28;20037;-72
2022/03/01 00:33:32;;;;;;;6.25;3.83;;;;;;;6.39;30.76;100848.88;5014414;28;20061;-72
2022/03/01 00:36:03;;;;;;;9.63;4.43;;;;;;;6.41;31.60;100844.66;5014808;28;20396;-72
2022/03/01 00:38:31;;;;;;;6.25;3.83;;;;;;;6.50;31.21;100853.00;5016269;28;20022;-72
2022/03/01 00:40:57;;;;;;;8.45;4.20;;;;;;;6.48;30.75;100852.50;5015368;28;20438;-72
2022/03/01 00:43:25;;;;;;;17.13;3.80;;;;;;;6.52;30.85;100856.25;5014524;28;20030;-72
2022/03/01 00:45:55;;;;;;;6.45;3.90;;;;;;;6.47;30.93;100854.44;5014495;28;20033;-74
2022/03/01 00:48:23;;;;;;;8.35;3.58;;;;;;;6.47;30.53;100837.88;5031117;28;20033;-72
2022/03/01 00:50:52;;;;;;;10.95;3.35;;;;;;;6.38;30.91;100838.97;5014402;28;20084;-72
2022/03/01 00:53:17;;;;;;;6.07;4.00;;;;;;;6.45;30.11;100840.16;5014404;28;20036;-72
2022/03/01 00:55:46;;;;;;;6.68;3.55;;;;;;;6.43;31.10;100836.06;5014948;28;20381;-72
2022/03/01 00:58:14;;;;;;;6.60;3.50;;;;;;;6.46;31.20;100838.19;5014909;28;20057;-72
2022/03/01 01:00:45;;;;;;;5.43;3.55;;;;;;;6.39;30.82;100824.84;5014212;28;20030;-73
2022/03/01 01:03:16;;;;;;;10.18;3.88;;;;;;;6.45;32.21;100828.28;5015332;28;20473;-73
2022/03/01 01:05:46;;;;;;;5.88;4.03;;;;;;;6.43;32.09;100830.53;5014142;28;20026;-73
2022/03/01 01:08:15;;;;;;;8.70;3.88;;;;;;;6.45;32.90;100833.81;5015371;28;20022;-74
2022/03/01 01:10:45;;;;;;;8.38;4.32;;;;;;;6.38;33.61;100822.38;5014399;28;20435;-73
2022/03/01 01:13:16;;;;;;;8.70;4.53;;;;;;;6.19;33.82;100812.38;5014353;28;20465;-74
2022/03/01 01:15:48;;;;;;;8.05;4.43;;;;;;;6.12;33.62;100812.00;5014109;28;20025;-74
2022/03/01 01:18:17;;;;;;;9.75;5.10;;;;;;;6.03;34.46;100813.94;5014773;28;20048;-72
2022/03/01 01:20:46;;;;;;;8.95;3.78;;;;;;;6.00;34.10;100811.78;5013847;28;20034;-74
2022/03/01 01:23:14;;;;;;;7.50;5.13;;;;;;;6.09;35.99;100812.66;5014472;28;20473;-74
2022/03/01 01:25:40;;;;;;;8.23;4.90;;;;;;;6.08;35.43;100807.47;5013871;28;20030;-73
2022/03/01 01:28:06;;;;;;;7.93;4.60;;;;;;;6.10;35.48;100797.72;5013736;28;20041;-73
2022/03/01 01:30:35;;;;;;;7.45;4.65;;;;;;;6.08;35.08;100791.69;5013907;28;20038;-74
2022/03/01 01:33:07;;;;;;;9.75;4.95;;;;;;;6.09;34.98;100782.28;5013439;28;20100;-74
2022/03/01 01:35:34;;;;;;;10.07;4.45;;;;;;;6.01;35.73;100775.56;5013936;28;20045;-75
2022/03/01 01:38:02;;;;;;;10.88;4.68;;;;;;;5.98;35.69;100783.69;5013720;28;20045;-74
2022/03/01 01:40:30;;;;;;;6.35;4.95;;;;;;;6.02;36.29;100788.25;5014085;28;20038;-73
2022/03/01 01:43:00;;;;;;;8.98;4.97;;;;;;;5.95;35.81;100793.41;5030569;28;20026;-74
2022/03/01 01:45:27;;;;;;;7.47;4.65;;;;;;;5.90;36.34;100799.03;5015641;28;20065;-74
2022/03/01 01:47:54;;;;;;;7.32;4.35;;;;;;;6.10;35.74;100803.22;5015614;28;20357;-75
2022/03/01 01:50:28;;;;;;;5.97;3.70;;;;;;;5.89;35.41;100797.41;5015018;28;20358;-74
2022/03/01 01:52:58;;;;;;;7.38;3.75;;;;;;;6.00;35.92;100795.22;5014627;28;20045;-74
2022/03/01 01:55:26;;;;;;;6.28;3.50;;;;;;;5.93;35.86;100792.91;5013065;28;20030;-73
2022/03/01 01:57:52;;;;;;;6.80;3.65;;;;;;;5.94;35.06;100799.25;5015067;28;20087;-74
2022/03/01 02:00:23;;;;;;;6.00;3.75;;;;;;;5.93;35.39;100800.41;5013216;28;20022;-74
2022/03/01 02:02:57;;;;;;;4.80;4.10;;;;;;;5.85;36.83;100803.88;5013545;28;20037;-73
2022/03/01 02:05:25;;;;;;;5.82;3.70;;;;;;;5.76;35.05;100790.03;5012990;28;20029;-74
2022/03/01 02:07:53;;;;;;;5.68;3.67;;;;;;;5.70;35.96;100788.50;5013145;28;20036;-73
2022/03/01 02:10:18;;;;;;;6.93;3.90;;;;;;;5.61;35.43;100782.94;5013039;28;20044;-73
2022/03/01 02:12:47;;;;;;;8.70;4.15;;;;;;;5.51;36.57;100772.97;5013306;28;20030;-74
2022/03/01 02:15:15;;;;;;;7.13;4.30;;;;;;;5.56;37.17;100769.28;5014026;28;20148;-73
2022/03/01 02:17:42;;;;;;;6.68;4.32;;;;;;;5.48;36.17;100765.31;5013459;28;20033;-74
2022/03/01 02:20:18;;;;;;;7.15;4.35;;;;;;;5.49;36.91;100758.69;5012971;28;20030;-74
2022/03/01 02:22:51;;;;;;;7.10;3.95;;;;;;;5.35;36.22;100762.63;5013390;28;20022;-73
2022/03/01 02:25:19;;;;;;;8.82;4.68;;;;;;;5.28;37.27;100765.84;5013110;28;20061;-74
2022/03/01 02:27:48;;;;;;;10.73;4.30;;;;;;;5.21;37.18;100763.50;5012760;28;20034;-73
2022/03/01 02:30:13;;;;;;;6.50;3.75;;;;;;;5.16;37.64;100769.13;5012727;28;20026;-74
2022/03/01 02:32:40;;;;;;;8.40;5.10;;;;;;;5.07;38.53;100767.47;5013057;28;20048;-73
2022/03/01 02:35:11;;;;;;;8.00;4.35;;;;;;;4.70;38.54;100737.13;5014625;28;20083;-74
2022/03/01 02:37:39;;;;;;;7.43;3.70;;;;;;;5.01;38.10;100786.06;4996391;28;20034;-73
2022/03/01 02:40:08;;;;;;;10.25;4.90;;;;;;;5.01;39.19;100786.06;4996412;28;20057;-74
2022/03/01 02:42:35;;;;;;;8.43;4.90;;;;;;;5.07;39.26;100772.97;5014560;28;20081;-74
2022/03/01 02:45:09;;;;;;;8.20;4.55;;;;;;;5.18;40.14;100772.41;4995928;28;20033;-74
2022/03/01 02:47:37;;;;;;;9.73;5.30;;;;;;;5.18;39.11;100769.66;5012742;28;20033;-73
2022/03/01 02:50:05;;;;;;;9.25;5.18;;;;;;;5.07;39.02;100773.78;4997049;28;20496;-74
2022/03/01 02:52:31;;;;;;;10.35;5.10;;;;;;;4.99;40.21;100777.28;5014245;28;20476;-73
2022/03/01 02:55:00;;;;;;;10.20;5.50;;;;;;;4.93;41.12;100773.00;4996233;28;20030;-73
2022/03/01 02:57:28;;;;;;;11.63;5.90;;;;;;;4.84;39.90;100780.38;5012585;28;20022;-74
2022/03/01 02:59:54;;;;;;;9.05;4.70;;;;;;;4.85;39.87;100782.03;4996342;28;20033;-74
2022/03/01 03:02:20;;;;;;;9.82;4.43;;;;;;;4.84;39.22;100791.41;4996047;28;20026;-74
2022/03/01 03:04:46;;;;;;;5.53;4.82;;;;;;;4.93;38.79;100784.03;4996022;28;20033;-73
2022/03/01 03:07:15;;;;;;;7.45;4.50;;;;;;;4.96;35.42;100780.66;4996197;28;20053;-71
2022/03/01 03:09:44;;;;;;;6.25;3.78;;;;;;;5.12;32.48;100776.44;4996428;28;20120;-74
2022/03/01 03:12:12;;;;;;;31.42;13.13;;;;;;;5.17;32.99;100772.75;4996340;28;20025;-74
2022/03/01 03:14:42;;;;;;;8.23;4.55;;;;;;;5.19;31.82;100768.53;4996060;28;20026;-74
2022/03/01 03:17:07;;;;;;;9.38;3.30;;;;;;;5.15;32.05;100766.69;4996875;28;20034;-74
2022/03/01 03:19:33;;;;;;;7.70;3.75;;;;;;;5.15;31.58;100764.75;4996590;28;20025;-74
2022/03/01 03:22:02;;;;;;;4.75;2.72;;;;;;;5.05;31.64;100770.50;4996472;28;20370;-74
2022/03/01 03:24:31;;;;;;;4.20;3.25;;;;;;;4.97;32.15;100768.50;4996492;28;20091;-74
2022/03/01 03:27:00;;;;;;;5.60;3.20;;;;;;;4.89;32.71;100766.47;4996556;28;20088;-74
2022/03/01 03:29:30;;;;;;;5.18;3.50;;;;;;;4.75;33.74;100779.50;4995964;28;20107;-74
2022/03/01 03:31:58;;;;;;;10.02;4.55;;;;;;;4.67;35.63;100778.25;4996484;28;20045;-74
2022/03/01 03:34:26;;;;;;;6.82;4.72;;;;;;;4.64;37.12;100778.91;5011819;28;20144;-74
2022/03/01 03:36:55;;;;;;;9.30;4.95;;;;;;;4.69;38.23;100776.84;5015809;28;20438;-71
2022/03/01 03:39:26;;;;;;;9.60;4.97;;;;;;;4.73;38.55;100780.59;5015763;28;20130;-74
2022/03/01 03:41:54;;;;;;;8.13;4.75;;;;;;;4.75;39.31;100771.22;5015371;28;20030;-73
2022/03/01 03:44:23;;;;;;;10.57;5.05;;;;;;;4.82;38.13;100777.13;5015993;28;20104;-74
2022/03/01 03:46:52;;;;;;;8.35;4.50;;;;;;;4.72;37.92;100770.69;5015920;28;20550;-74
2022/03/01 03:49:22;;;;;;;6.90;4.93;;;;;;;4.61;38.16;100766.53;5015405;28;20034;-72
2022/03/01 03:51:50;;;;;;;7.38;4.40;;;;;;;4.49;38.63;100769.00;5015316;28;20112;-74
2022/03/01 03:54:16;;;;;;;6.63;3.85;;;;;;;4.51;38.42;100774.19;5015375;28;20551;-74
2022/03/01 03:56:47;;;;;;;6.80;3.92;;;;;;;4.45;39.15;100774.31;5016253;28;20065;-74
2022/03/01 03:59:13;;;;;;;9.13;4.32;;;;;;;4.56;39.04;100766.63;5018652;28;20156;-72
2022/03/01 04:01:38;;;;;;;7.50;4.45;;;;;;;4.59;38.92;100774.31;5018739;28;20029;-74
2022/03/01 04:04:08;;;;;;;8.10;4.45;;;;;;;4.49;39.39;100773.69;5018716;28;20036;-74
2022/03/01 04:06:34;;;;;;;8.75;5.03;;;;;;;4.60;37.95;100781.44;5019237;28;20357;-74
2022/03/01 04:09:02;;;;;;;9.77;4.88;;;;;;;4.42;37.54;100785.13;5019484;28;20368;-74
2022/03/01 04:11:30;;;;;;;6.97;4.15;;;;;;;4.39;37.52;100785.75;5018611;28;20037;-74
2022/03/01 04:13:59;;;;;;;7.43;4.20;;;;;;;4.32;38.14;100785.34;5018526;28;20029;-74
2022/03/01 04:16:27;;;;;;;6.93;4.32;;;;;;;4.36;38.40;100791.84;5018819;28;20029;-74
2022/03/01 04:18:56;;;;;;;7.53;4.60;;;;;;;4.35;39.27;100801.25;5018519;28;20026;-74
2022/03/01 04:21:21;;;;;;;7.20;4.65;;;;;;;4.23;39.01;100785.25;5018360;28;20029;-74
2022/03/01 04:23:52;;;;;;;8.38;5.10;;;;;;;4.20;39.32;100794.91;5018382;28;20030;-74
2022/03/01 04:26:23;;;;;;;8.23;5.28;;;;;;;4.26;38.49;100790.16;5018410;28;20030;-74
2022/03/01 04:28:51;;;;;;;6.97;4.90;;;;;;;4.30;39.08;100793.09;5018943;28;20028;-74
2022/03/01 04:31:19;;;;;;;5.53;4.18;;;;;;;4.16;39.22;100802.19;5019177;28;20471;-74
2022/03/01 04:33:48;;;;;;;6.75;4.45;;;;;;;4.08;39.97;100805.63;5014825;28;20111;-75
2022/03/01 04:36:14;;;;;;;8.05;4.75;;;;;;;4.03;40.87;100811.22;5015497;28;20124;-75
2022/03/01 04:38:43;;;;;;;8.57;4.72;;;;;;;4.04;40.92;100807.34;5015027;28;20029;-75
2022/03/01 04:41:11;;;;;;;6.50;4.65;;;;;;;4.09;40.59;100809.19;5014714;28;20117;-72
2022/03/01 04:43:39;;;;;;;9.45;5.20;;;;;;;4.05;40.66;100803.50;5014631;28;20033;-74
2022/03/01 04:46:08;;;;;;;11.48;5.00;;;;;;;4.08;39.34;100800.09;5014656;28;20034;-74
2022/03/01 04:48:39;;;;;;;10.95;6.35;;;;;;;4.13;40.54;100800.03;5031022;28;20099;-74
2022/03/01 04:51:07;;;;;;;8.50;5.45;;;;;;;4.09;39.64;100793.47;5016416;28;20144;-74
2022/03/01 04:53:33;;;;;;;12.90;5.90;;;;;;;4.10;40.25;100792.38;5014513;28;20096;-74
2022/03/01 04:56:03;;;;;;;10.02;4.60;;;;;;;4.17;39.71;100772.69;5014932;28;20039;-74
2022/03/01 04:58:31;;;;;;;5.70;3.42;;;;;;;4.30;41.02;100776.56;5014743;28;20149;-74
2022/03/01 05:00:58;;;;;;;4.45;3.45;;;;;;;4.28;41.63;100778.81;5014200;28;20117;-74
2022/03/01 05:03:26;;;;;;;6.32;3.35;;;;;;;4.35;41.10;100779.22;5014176;28;20038;-74
2022/03/01 05:05:51;;;;;;;6.50;3.97;;;;;;;4.37;41.74;100785.25;5015563;28;20101;-74
2022/03/01 05:08:17;;;;;;;5.35;3.35;;;;;;;4.34;41.67;100783.91;5013929;28;20058;-74
2022/03/01 05:10:42;;;;;;;5.97;3.35;;;;;;;4.27;42.01;100786.25;5014486;28;20554;-74
2022/03/01 05:13:10;;;;;;;5.75;3.22;;;;;;;4.28;42.27;100792.59;5014059;28;20064;-74
2022/03/01 05:15:41;;;;;;;6.18;3.78;;;;;;;4.19;43.47;100804.31;5013977;28;20037;-74
2022/03/01 05:18:09;;;;;;;4.63;3.08;;;;;;;4.30;42.77;100801.34;5013965;28;20033;-74
2022/03/01 05:20:37;;;;;;;5.13;3.17;;;;;;;4.34;43.16;100805.13;5013965;28;20034;-74
2022/03/01 05:23:08;;;;;;;4.50;3.45;;;;;;;4.30;44.37;100795.84;5013863;28;20117;-74
2022/03/01 05:25:34;;;;;;;5.45;2.83;;;;;;;4.33;44.96;100796.06;5013868;28;20038;-74
2022/03/01 05:28:04;;;;;;;4.82;2.85;;;;;;;4.31;44.71;100790.00;5014151;28;20041;-74
2022/03/01 05:30:32;;;;;;;4.97;2.65;;;;;;;4.36;45.77;100802.88;5014384;28;20038;-74
2022/03/01 05:32:58;;;;;;;3.45;2.58;;;;;;;4.28;46.15;100793.41;5013357;28;20058;-73
2022/03/01 05:35:30;;;;;;;4.53;2.67;;;;;;;4.27;46.57;100799.22;5013950;28;20037;-74
2022/03/01 05:38:02;;;;;;;4.18;2.70;;;;;;;4.27;46.41;100802.78;5013572;28;20037;-73
2022/03/01 05:40:30;;;;;;;4.70;3.40;;;;;;;4.17;47.13;100798.28;5014300;28;20049;-73
2022/03/01 05:42:57;;;;;;;4.30;3.00;;;;;;;4.23;47.64;100798.19;5013624;28;20030;-72
2022/03/01 05:45:25;;;;;;;5.70;3.50;;;;;;;4.23;48.16;100807.28;5014364;28;20038;-73
2022/03/01 05:47:56;;;;;;;8.50;3.28;;;;;;;4.08;47.30;100810.31;5013627;28;20393;-72
2022/03/01 05:50:22;;;;;;;6.45;3.42;;;;;;;4.08;47.55;100813.06;5013819;28;20037;-74
2022/03/01 05:52:50;;;;;;;5.25;2.90;;;;;;;4.14;47.40;100811.84;5013274;28;20040;-74
2022/03/01 05:55:21;;;;;;;4.25;3.08;;;;;;;4.18;48.55;100819.19;5013407;28;20045;-74
2022/03/01 05:57:49;;;;;;;5.45;3.22;;;;;;;4.18;48.37;100821.97;5014373;28;20037;-72
2022/03/01 06:00:18;;;;;;;6.80;3.67;;;;;;;4.72;46.66;100811.22;5013879;28;20379;-72
2022/03/01 06:02:45;;;;;;;4.93;3.63;;;;;;;5.39;44.39;100816.06;5013248;28;20449;-74
2022/03/01 06:05:12;;;;;;;5.50;3.90;;;;;;;5.89;43.16;100827.78;5013102;28;20061;-72
2022/03/01 06:07:38;;;;;;;4.43;2.90;;;;;;;6.38;42.14;100827.91;5013064;28;20025;-72
2022/03/01 06:10:07;;;;;;;7.95;3.95;;;;;;;6.79;41.83;100827.56;5013084;28;20030;-73
2022/03/01 06:12:35;;;;;;;6.80;3.83;;;;;;;6.69;41.70;100823.13;5029507;28;20033;-72
2022/03/01 06:15:01;;;;;;;4.88;3.55;;;;;;;7.15;41.48;100843.91;5013654;28;20053;-73
2022/03/01 06:17:30;;;;;;;8.40;3.70;;;;;;;7.33;40.92;100851.06;5013180;28;20080;-73
2022/03/01 06:19:58;;;;;;;6.13;3.72;;;;;;;7.53;39.44;100854.34;5012263;28;20041;-73
2022/03/01 06:22:28;;;;;;;6.07;3.67;;;;;;;7.70;39.72;100862.63;5013111;28;20113;-73
2022/03/01 06:24:59;;;;;;;11.10;4.95;;;;;;;7.98;37.71;100863.09;5013504;28;20388;-73
2022/03/01 06:27:25;;;;;;;9.02;4.53;;;;;;;8.05;37.48;100873.69;5013025;28;20487;-74
2022/03/01 06:29:51;;;;;;;4.90;4.13;;;;;;;8.36;37.05;100868.75;5012860;28;20029;-73
2022/03/01 06:32:25;;;;;;;9.63;4.70;;;;;;;9.15;36.81;100871.94;5029795;28;20033;-73
2022/03/01 06:34:53;;;;;;;9.20;5.85;;;;;;;9.60;35.94;100883.22;4980324;28;20104;-73
2022/03/01 06:37:22;;;;;;;46.47;26.13;;;;;;;8.92;35.48;100886.13;4997263;28;20415;-73
2022/03/01 06:39:58;;;;;;;24.98;14.68;;;;;;;7.30;38.56;100897.97;4996466;28;20029;-73
2022/03/01 06:42:27;;;;;;;9.18;5.03;;;;;;;6.73;39.87;100909.06;4996613;28;20033;-73
2022/03/01 06:44:55;;;;;;;8.43;5.72;;;;;;;6.26;41.36;100903.94;4996905;28;20365;-73
2022/03/01 06:47:24;;;;;;;13.00;6.03;;;;;;;5.94;42.28;100907.78;4996182;28;20045;-72
2022/03/01 06:49:52;;;;;;;12.23;5.97;;;;;;;6.25;41.50;100910.59;4996854;28;20466;-73
2022/03/01 06:52:17;;;;;;;8.43;4.78;;;;;;;5.93;42.13;100913.63;4996561;28;20120;-73
2022/03/01 06:54:48;;;;;;;10.52;5.57;;;;;;;5.38;43.92;100911.00;4996833;28;20069;-72
2022/03/01 06:57:18;;;;;;;7.93;4.68;;;;;;;5.34;44.46;100905.31;4996493;28;20038;-73
2022/03/01 06:59:44;;;;;;;7.90;4.53;;;;;;;4.93;45.30;100905.38;4996219;28;20025;-73
2022/03/01 07:02:12;;;;;;;8.63;4.85;;;;;;;4.75;46.45;100903.56;4996145;28;20041;-72
2022/03/01 07:04:37;;;;;;;6.88;4.72;;;;;;;4.78;46.89;100906.50;4996251;28;20040;-73
2022/03/01 07:07:06;;;;;;;9.07;5.15;;;;;;;4.96;47.11;100911.09;4996160;28;20038;-73
2022/03/01 07:09:32;;;;;;;7.53;5.55;;;;;;;4.83;47.26;100911.09;4996496;28;20469;-73
2022/03/01 07:12:00;;;;;;;12.93;6.22;;;;;;;4.87;46.77;100901.09;4995899;28;20034;-72
2022/03/01 07:14:30;;;;;;;10.02;6.07;;;;;;;5.23;46.56;100904.72;5014039;28;20033;-72
2022/03/01 07:19:45;;;;;;;17.45;6.22;;;;;;;5.90;44.72;100905.94;5095749;23;20057;-74
2022/03/01 07:22:13;;;;;;;9.95;6.80;;;;;;;6.92;43.71;100909.59;5037556;28;20037;-74
2022/03/01 07:24:39;;;;;;;16.90;7.97;;;;;;;7.40;42.60;100913.44;5039467;28;20036;-75
2022/03/01 07:27:04;;;;;;;10.38;6.40;;;;;;;7.40;41.11;100919.78;5039997;28;20039;-75
2022/03/01 07:29:30;;;;;;;8.32;4.20;;;;;;;7.20;40.20;100904.63;5036064;28;20120;-75
2022/03/01 07:31:57;;;;;;;9.18;5.18;;;;;;;7.34;40.23;100913.59;5038101;28;20091;-75
2022/03/01 07:34:23;;;;;;;6.95;4.60;;;;;;;7.04;40.78;100909.00;5040136;28;20087;-75
2022/03/01 07:36:49;;;;;;;7.07;4.97;;;;;;;7.48;40.26;100905.16;5057313;28;20377;-75
2022/03/01 07:39:18;;;;;;;5.03;4.05;;;;;;;8.45;38.71;100910.31;5057313;28;20162;-75
2022/03/01 07:41:43;;;;;;;8.13;4.35;;;;;;;9.56;37.33;100903.69;5039602;28;20451;-75
2022/03/01 07:44:09;;;;;;;12.93;8.02;;;;;;;9.13;36.08;100908.38;5039027;28;20502;-75
2022/03/01 07:46:35;;;;;;;9.80;5.15;;;;;;;8.56;37.81;100894.94;5038875;28;20033;-75
2022/03/01 07:49:00;;;;;;;6.47;4.90;;;;;;;8.73;38.09;100904.31;5055573;28;20098;-75
2022/03/01 07:51:26;;;;;;;6.82;5.30;;;;;;;9.04;37.03;100898.47;5038976;28;20039;-75
2022/03/01 07:53:51;;;;;;;9.27;5.05;;;;;;;9.52;36.84;100902.72;5038837;28;20021;-75
2022/03/01 07:56:20;;;;;;;6.95;4.28;;;;;;;9.69;35.99;100908.97;5039118;28;20028;-75
2022/03/01 07:58:46;;;;;;;13.13;7.53;;;;;;;9.90;34.91;100914.50;5056763;28;20170;-75
2022/03/01 08:01:12;;;;;;;14.63;8.07;;;;;;;10.40;34.59;100916.34;5039194;28;20467;-75
2022/03/01 08:03:38;;;;;;;13.68;7.18;;;;;;;10.49;34.32;100896.75;5038755;28;20025;-75
2022/03/01 08:06:06;;;;;;;8.50;5.50;;;;;;;10.37;34.25;100905.91;5038912;28;20052;-73
2022/03/01 08:08:32;;;;;;;6.40;4.10;;;;;;;10.47;33.56;100907.44;5038863;28;20483;-73
2022/03/01 08:10:58;;;;;;;6.35;4.35;;;;;;;10.03;34.47;100901.47;5038249;28;20082;-73
2022/03/01 08:13:24;;;;;;;4.72;3.65;;;;;;;10.03;34.71;100900.66;5039066;28;20025;-74
2022/03/01 08:15:51;;;;;;;10.43;5.82;;;;;;;10.56;33.85;100897.03;5038543;28;20124;-74
2022/03/01 08:18:16;;;;;;;5.50;4.43;;;;;;;10.35;33.78;100897.09;5038085;28;20131;-73
2022/03/01 08:20:42;;;;;;;11.23;6.45;;;;;;;10.80;33.50;100896.22;5056862;28;20104;-73
2022/03/01 08:23:09;;;;;;;19.38;13.45;;;;;;;10.61;31.30;100902.38;5038327;28;20079;-74
2022/03/01 08:25:35;;;;;;;23.17;15.23;;;;;;;10.66;31.38;100907.72;5038590;28;20060;-73
2022/03/01 08:28:00;;;;;;;24.05;16.60;;;;;;;10.94;31.08;100912.59;5038734;28;20029;-73
2022/03/01 08:30:29;;;;;;;7.22;4.35;;;;;;;10.76;31.74;100914.81;5038746;28;20463;-73
2022/03/01 08:32:55;;;;;;;8.13;5.32;;;;;;;11.68;31.87;100908.56;5056325;28;20075;-73
2022/03/01 08:35:21;;;;;;;7.78;5.03;;;;;;;11.63;32.04;100908.00;5038361;28;20025;-74
2022/03/01 08:37:48;;;;;;;8.15;4.45;;;;;;;11.34;32.63;100918.25;5038455;28;20033;-74
2022/03/01 08:40:14;;;;;;;5.82;4.15;;;;;;;10.34;34.30;100912.16;5039541;28;20103;-73
2022/03/01 08:42:42;;;;;;;8.82;4.15;;;;;;;10.01;35.09;100930.75;5037159;28;20116;-73
2022/03/01 08:45:11;;;;;;;7.10;4.45;;;;;;;10.64;34.74;100925.91;5056153;28;20021;-74
2022/03/01 08:47:37;;;;;;;5.32;3.47;;;;;;;10.41;34.30;100915.19;5055809;28;20431;-73
2022/03/01 08:50:03;;;;;;;5.82;3.65;;;;;;;9.63;35.75;100942.84;5038410;28;20071;-73
2022/03/01 08:52:29;;;;;;;3.88;3.33;;;;;;;8.34;37.48;100937.53;5037790;28;20059;-73
2022/03/01 08:54:54;;;;;;;4.90;3.63;;;;;;;8.68;37.98;100935.84;5038053;28;20029;-73
2022/03/01 08:57:20;;;;;;;5.13;3.10;;;;;;;8.26;38.91;100943.94;5055067;28;20391;-73
2022/03/01 08:59:45;;;;;;;6.63;4.32;;;;;;;9.12;37.57;100933.72;5037360;28;20151;-73
2022/03/01 09:02:11;;;;;;;6.35;4.90;;;;;;;9.54;36.86;100940.16;5037817;28;20025;-76
2022/03/01 09:04:37;;;;;;;5.55;4.25;;;;;;;9.58;36.49;100941.06;5037950;28;20067;-73
2022/03/01 09:07:41;;;;;;;8.00;4.63;;;;;;;10.27;35.16;100952.81;5037491;28;20094;-74
2022/03/01 09:10:07;;;;;;;8.65;4.35;;;;;;;9.39;36.09;100955.44;5033915;28;20044;-75
2022/03/01 09:12:33;;;;;;;5.97;3.90;;;;;;;9.93;35.33;100936.06;5037616;28;20033;-75
2022/03/01 09:15:31;;;;;;;5.38;3.72;;;;;;;9.86;35.15;100943.34;5037368;28;20501;-74
2022/03/01 09:17:57;;;;;;;8.15;3.40;;;;;;;9.33;36.40;100956.78;5055187;28;20033;-75
2022/03/01 09:20:23;;;;;;;6.80;4.43;;;;;;;9.74;36.27;100949.63;5037188;28;20174;-74
2022/03/01 09:22:57;;;;;;;9.02;4.28;;;;;;;9.74;35.44;100913.50;5055216;28;20520;-74
2022/03/01 09:25:23;;;;;;;8.32;4.45;;;;;;;10.00;35.68;100921.63;5037894;28;20025;-74
2022/03/01 09:27:49;;;;;;;10.35;4.80;;;;;;;10.86;33.64;100933.00;5055514;28;20079;-75
2022/03/01 09:30:42;;;;;;;9.75;5.38;;;;;;;10.14;34.64;100933.28;5037637;28;20021;-74
2022/03/01 09:33:07;;;;;;;10.40;5.35;;;;;;;11.17;33.54;100926.88;5037821;28;20032;-75
2022/03/01 09:35:33;;;;;;;7.85;4.03;;;;;;;10.41;32.98;100931.88;5055095;28;20033;-74
2022/03/01 09:38:50;;;;;;;6.32;4.10;;;;;;;10.22;33.83;100925.97;5037559;28;20033;-74
2022/03/01 09:41:17;;;;;;;7.85;4.20;;;;;;;10.65;34.15;100920.00;5054843;28;20029;-75
2022/03/01 09:43:42;;;;;;;6.00;4.03;;;;;;;10.59;33.76;100923.34;5053802;28;20483;-73
2022/03/01 09:46:10;;;;;;;7.40;4.32;;;;;;;10.77;33.00;100929.53;5036597;28;20036;-74
2022/03/01 09:48:36;;;;;;;4.40;3.88;;;;;;;10.21;33.86;100916.03;5037412;28;20482;-74
2022/03/01 09:51:04;;;;;;;5.10;4.22;;;;;;;10.33;33.87;100923.63;5037657;28;20383;-74
2022/03/01 09:53:31;;;;;;;8.50;3.92;;;;;;;9.95;34.11;100928.19;5054405;28;20029;-74
2022/03/01 09:56:02;;;;;;;12.55;7.72;;;;;;;10.24;33.56;100926.50;5036532;28;20040;-74
2022/03/01 09:58:28;;;;;;;6.05;4.15;;;;;;;10.11;33.70;100930.34;5036255;28;20032;-73
2022/03/01 10:00:53;;;;;;;6.55;4.40;;;;;;;9.63;33.88;100915.88;5036589;28;20029;-74
2022/03/01 10:03:29;;;;;;;7.72;5.75;;;;;;;9.19;35.92;100917.31;5037131;28;20024;-73
2022/03/01 10:06:06;;;;;;;5.30;3.97;;;;;;;9.29;35.88;100896.69;5038236;28;20029;-74
2022/03/01 10:08:31;;;;;;;5.18;3.10;;;;;;;9.57;35.55;100911.66;5040229;28;20039;-73
2022/03/01 10:10:58;;;;;;;12.63;5.32;;;;;;;10.13;35.43;100903.84;5038673;28;20029;-74
2022/03/01 10:13:30;;;;;;;8.63;5.22;;;;;;;10.89;34.61;100899.72;5037033;28;20068;-74
2022/03/01 10:16:02;;;;;;;25.73;18.67;;;;;;;10.45;33.82;100902.22;5054410;28;20033;-74
2022/03/01 10:18:32;;;;;;;8.70;4.93;;;;;;;10.37;34.10;100911.47;5036738;28;20041;-74
2022/03/01 10:24:20;;;;;;;8.75;4.20;;;;;;;10.22;35.31;100915.66;5062606;28;20116;-75
2022/03/01 10:26:45;;;;;;;7.90;5.55;;;;;;;10.37;34.53;100914.25;5038179;28;20402;-74
2022/03/01 10:29:11;;;;;;;9.27;5.78;;;;;;;10.33;35.07;100916.06;5053866;28;20035;-74
2022/03/01 10:35:15;;;;;;;8.30;4.63;;;;;;;10.37;34.09;100907.88;5054917;28;20056;-74
2022/03/01 10:37:41;;;;;;;6.43;4.57;;;;;;;10.99;33.92;100909.59;5036365;28;20497;-73
2022/03/01 10:40:22;;;;;;;10.52;5.90;;;;;;;10.80;33.13;100921.28;5032934;28;20472;-74
2022/03/01 10:43:04;;;;;;;15.77;7.38;;;;;;;10.29;34.75;100917.94;5046810;28;20100;-74
2022/03/01 10:45:47;;;;;;;10.27;6.30;;;;;;;10.25;34.28;100907.84;5035533;28;20044;-74
2022/03/01 10:48:27;;;;;;;11.13;7.57;;;;;;;11.24;34.31;100904.81;5056384;28;20025;-74
2022/03/01 10:51:48;;;;;;;17.13;11.05;;;;;;;11.54;33.01;100896.97;5034426;28;20465;-74
2022/03/01 10:54:32;;;;;;;18.70;10.90;;;;;;;11.77;33.42;100897.25;5033339;28;20036;-74
2022/03/01 11:00:36;;;;;;;16.42;12.30;;;;;;;11.36;34.22;100902.00;5053551;28;20033;-74
2022/03/01 11:03:04;;;;;;;8.82;6.55;;;;;;;10.67;33.95;100894.59;5035590;28;20021;-74
2022/03/01 11:05:31;;;;;;;9.30;5.30;;;;;;;10.16;34.40;100902.31;5035510;28;20092;-74
2022/03/01 11:08:04;;;;;;;13.65;10.40;;;;;;;10.53;35.54;100896.88;5040244;28;20033;-74
2022/03/01 11:10:32;;;;;;;10.80;7.10;;;;;;;10.51;35.02;100888.09;5023457;28;20029;-73
2022/03/01 11:13:01;;;;;;;19.70;12.93;;;;;;;10.54;35.59;100893.75;5057898;28;20060;-75
2022/03/01 11:15:44;;;;;;;15.60;8.13;;;;;;;10.37;35.32;100889.22;5057777;28;20025;-74
2022/03/01 11:18:16;;;;;;;13.48;7.05;;;;;;;10.29;35.16;100870.66;5035749;28;20042;-74
2022/03/01 11:20:47;;;;;;;17.73;10.25;;;;;;;10.14;35.79;100879.63;5022536;28;20029;-75
2022/03/01 11:27:33;;;;;;;14.02;10.00;;;;;;;10.33;35.07;100870.75;5038292;28;20395;-75
2022/03/01 11:30:09;;;;;;;15.60;9.05;;;;;;;10.59;34.78;100865.72;5031579;28;20034;-74
2022/03/01 11:32:48;;;;;;;37.17;16.60;;;;;;;10.58;35.55;100863.28;5035706;28;20032;-75
2022/03/01 11:35:19;;;;;;;20.73;10.27;;;;;;;9.02;36.97;100850.81;5033126;28;20368;-74
2022/03/01 11:38:08;;;;;;;28.13;13.63;;;;;;;9.56;36.21;100859.22;5036775;28;20341;-75
2022/03/01 11:40:39;;;;;;;14.13;9.27;;;;;;;9.30;37.00;100845.53;5036427;28;20119;-75
2022/03/01 11:43:12;;;;;;;18.48;10.02;;;;;;;9.56;37.41;100842.56;5035895;28;20029;-75
2022/03/01 11:45:38;;;;;;;15.98;8.63;;;;;;;9.77;37.67;100840.56;5037590;28;20036;-75
2022/03/01 11:48:29;;;;;;;15.93;8.20;;;;;;;9.79;36.71;100841.03;5036593;28;20036;-75
2022/03/01 11:50:59;;;;;;;24.50;11.25;;;;;;;10.27;35.78;100838.78;5023972;28;20044;-75
2022/03/01 11:53:26;;;;;;;21.38;10.43;;;;;;;10.54;35.49;100832.53;5035564;28;20029;-75
2022/03/01 11:56:21;;;;;;;21.33;12.13;;;;;;;11.20;34.78;100825.91;5028725;28;20129;-75